Georgetown, Tennessee
Current Conditions -  °F | °C
As of 10:55 PM on Wednesday 22 Oct 2014 (Local Time) from KRZR Reporting Station
Clear Clear  
Wind Chill: 43°   Ceiling: Unl
Heat Index: 46°   Visibility: 10mi
Dew Point: 39°   Wind: 7mph
Humidity: 76%   Direction: 30°NNE
Pressure: 30.21"   Gusts: NA
Location:  35.27°N, 84.98°W
Report Text: KRZR 230255Z AUTO 03006KT 10SM CLR 08/04 A3021 RMK
Loading
Personal Weather Stations






























Interactive Weather Map
Tropical Storm Tracking
New forecast layout! Learn more

10-Day Weather Forecast

Advertisements
Track Severe Weather on mobile